createdAt,value
2022-09-30T00:01:50.786Z,86.59
2022-09-30T00:04:22.555Z,86.89
2022-09-30T00:06:53.539Z,86.91
2022-09-30T00:09:22.593Z,87.08
2022-09-30T00:11:51.356Z,87.23
2022-09-30T00:14:22.045Z,87.14
2022-09-30T00:16:51.365Z,87.29
2022-09-30T00:19:19.744Z,87.02
2022-09-30T00:21:47.840Z,87.01
2022-09-30T00:24:15.862Z,86.75
2022-09-30T00:26:44.178Z,86.26
2022-09-30T00:29:12.615Z,85.94
2022-09-30T00:31:40.979Z,86.09
2022-09-30T00:34:12.112Z,86.40
2022-09-30T00:36:46.768Z,86.61
2022-09-30T00:39:18.847Z,86.45
2022-09-30T00:41:51.242Z,86.23
2022-09-30T00:44:53.984Z,86.74
2022-09-30T00:47:37.650Z,86.78
2022-09-30T00:50:20.077Z,85.31
2022-09-30T00:52:57.106Z,84.62
2022-09-30T00:55:37.512Z,84.58
2022-09-30T00:58:10.726Z,84.68
2022-09-30T01:00:38.975Z,85.21
2022-09-30T01:03:08.237Z,86.00
2022-09-30T01:05:37.677Z,85.84
2022-09-30T01:08:09.609Z,85.74
2022-09-30T01:10:37.694Z,86.07
2022-09-30T01:13:06.989Z,86.45
2022-09-30T01:16:07.068Z,86.62
2022-09-30T01:18:53.659Z,84.78
2022-09-30T01:22:13.748Z,84.70
2022-09-30T01:25:25.712Z,84.14
2022-09-30T01:28:38.075Z,83.77
2022-09-30T01:31:26.886Z,84.28
2022-09-30T01:34:08.839Z,84.85
2022-09-30T01:36:56.414Z,85.02
2022-09-30T01:39:39.758Z,85.19
2022-09-30T01:42:19.668Z,84.65
2022-09-30T01:45:03.542Z,84.63
2022-09-30T01:47:43.154Z,85.01
2022-09-30T01:50:20.977Z,84.99
2022-09-30T01:53:03.374Z,84.39
2022-09-30T01:55:40.806Z,84.42
2022-09-30T01:58:18.415Z,84.03
2022-09-30T02:00:53.994Z,83.62
2022-09-30T02:03:31.163Z,83.99
2022-09-30T02:06:04.886Z,84.27
2022-09-30T02:08:42.420Z,84.51
2022-09-30T02:11:18.301Z,84.28
2022-09-30T02:13:52.393Z,84.21
2022-09-30T02:16:29.168Z,84.49
2022-09-30T02:19:04.022Z,83.65
2022-09-30T02:21:40.750Z,83.45
2022-09-30T02:24:15.753Z,83.34
2022-09-30T02:26:48.973Z,83.70
2022-09-30T02:29:22.293Z,84.05
2022-09-30T02:31:57.557Z,84.29
2022-09-30T02:34:32.475Z,84.90
2022-09-30T02:37:09.059Z,84.72
2022-09-30T02:39:48.536Z,84.55
2022-09-30T02:42:21.968Z,84.50
2022-09-30T02:44:54.023Z,84.57
2022-09-30T02:47:34.955Z,84.81
2022-09-30T02:50:17.676Z,85.29
2022-09-30T02:53:04.386Z,85.03
2022-09-30T02:55:45.913Z,85.47
2022-09-30T02:58:20.874Z,85.56
2022-09-30T03:00:49.747Z,86.01
2022-09-30T03:03:24.572Z,86.07
2022-09-30T03:05:54.509Z,86.08
2022-09-30T03:08:22.716Z,85.97
2022-09-30T03:10:53.389Z,84.51
2022-09-30T03:13:52.464Z,84.32
2022-09-30T03:16:34.446Z,84.70
2022-09-30T03:19:29.079Z,84.80
2022-09-30T03:22:33.336Z,83.61
2022-09-30T03:25:23.978Z,83.87
2022-09-30T03:28:11.768Z,84.14
2022-09-30T03:30:52.319Z,84.39
2022-09-30T03:33:31.278Z,84.97
2022-09-30T03:36:07.628Z,85.00
2022-09-30T03:38:50.062Z,85.42
2022-09-30T03:41:31.825Z,85.72
2022-09-30T03:44:10.079Z,86.02
2022-09-30T03:46:44.922Z,85.57
2022-09-30T03:49:20.143Z,85.31
2022-09-30T03:51:50.961Z,85.17
2022-09-30T03:54:20.489Z,85.04
2022-09-30T03:56:48.480Z,85.31
2022-09-30T03:59:25.535Z,85.66
2022-09-30T04:01:53.957Z,86.03
2022-09-30T04:04:22.357Z,86.67
2022-09-30T04:06:50.421Z,87.03
2022-09-30T04:09:20.126Z,86.82
2022-09-30T04:11:48.261Z,86.95
2022-09-30T04:14:16.305Z,86.98
2022-09-30T04:16:44.350Z,87.12
2022-09-30T04:19:12.463Z,87.05
2022-09-30T04:21:40.529Z,87.03
2022-09-30T04:24:09.416Z,87.03
2022-09-30T04:26:38.816Z,87.14
2022-09-30T04:29:06.976Z,87.33
2022-09-30T04:31:35.195Z,87.01
2022-09-30T04:34:03.503Z,86.73
2022-09-30T04:36:31.555Z,86.88
2022-09-30T04:38:59.638Z,86.93
2022-09-30T04:41:27.601Z,86.92
2022-09-30T04:43:56.936Z,87.27
2022-09-30T04:46:25.177Z,87.49
2022-09-30T04:48:53.490Z,87.26
2022-09-30T04:51:22.754Z,87.28
2022-09-30T04:53:51.271Z,86.73
2022-09-30T04:56:19.313Z,85.95
2022-09-30T04:58:47.396Z,85.96
2022-09-30T05:01:18.577Z,86.02
2022-09-30T05:03:48.749Z,86.11
2022-09-30T05:06:17.293Z,86.51
2022-09-30T05:08:46.533Z,86.74
2022-09-30T05:11:18.706Z,86.77
2022-09-30T05:13:48.270Z,86.86
2022-09-30T05:16:18.754Z,87.17
2022-09-30T05:18:47.173Z,87.23
2022-09-30T05:21:17.567Z,86.05
2022-09-30T05:23:47.407Z,85.76
2022-09-30T05:26:16.004Z,85.98
2022-09-30T05:28:44.180Z,86.34
2022-09-30T05:31:13.556Z,86.53
2022-09-30T05:33:43.054Z,85.11
2022-09-30T05:36:15.482Z,84.03
2022-09-30T05:38:43.898Z,83.82
2022-09-30T05:41:14.920Z,84.07
2022-09-30T05:43:47.593Z,84.55
2022-09-30T05:46:16.349Z,84.81
2022-09-30T05:48:46.772Z,85.32
2022-09-30T05:51:15.250Z,85.66
2022-09-30T05:53:43.519Z,85.65
2022-09-30T05:56:12.381Z,85.46
2022-09-30T05:58:42.061Z,85.79
2022-09-30T06:01:14.293Z,86.07
2022-09-30T06:03:43.596Z,85.76
2022-09-30T06:06:13.514Z,85.67
2022-09-30T06:08:43.490Z,85.42
2022-09-30T06:11:14.056Z,85.30
2022-09-30T06:13:44.013Z,85.33
2022-09-30T06:16:13.840Z,84.65
2022-09-30T06:18:42.731Z,84.00
2022-09-30T06:21:15.350Z,83.69
2022-09-30T06:23:44.094Z,83.50
2022-09-30T06:26:14.310Z,82.44
2022-09-30T06:28:42.879Z,81.42
2022-09-30T06:31:11.675Z,81.38
2022-09-30T06:33:39.754Z,81.28
2022-09-30T06:36:07.749Z,81.75
2022-09-30T06:38:38.187Z,80.69
2022-09-30T06:41:07.487Z,79.77
2022-09-30T06:43:40.035Z,79.17
2022-09-30T06:46:21.548Z,78.07
2022-09-30T06:49:10.068Z,77.64
2022-09-30T06:51:42.180Z,77.22
2022-09-30T06:54:12.258Z,75.98
2022-09-30T06:56:40.419Z,75.14
2022-09-30T06:59:08.498Z,74.34
2022-09-30T07:01:36.563Z,74.36
2022-09-30T07:04:09.397Z,74.22
2022-09-30T07:06:39.014Z,74.08
2022-09-30T07:09:08.407Z,72.92
2022-09-30T07:11:38.525Z,72.49
2022-09-30T07:14:07.242Z,71.61
2022-09-30T07:16:35.434Z,71.52
2022-09-30T07:19:06.801Z,71.89
2022-09-30T07:21:35.100Z,71.20
2022-09-30T07:24:03.690Z,71.18
2022-09-30T07:26:31.724Z,70.15
2022-09-30T07:29:01.148Z,69.62
2022-09-30T07:31:34.539Z,69.22
2022-09-30T07:34:06.957Z,69.75
2022-09-30T07:36:37.039Z,69.95
2022-09-30T07:39:09.268Z,70.00
2022-09-30T07:41:40.382Z,69.92
2022-09-30T07:44:14.389Z,70.00
2022-09-30T07:46:44.966Z,69.90
2022-09-30T07:49:24.816Z,69.87
2022-09-30T07:51:56.448Z,69.48
2022-09-30T07:54:28.249Z,69.57
2022-09-30T07:57:09.849Z,68.35
2022-09-30T07:59:42.373Z,67.99
2022-09-30T08:02:17.244Z,67.37
2022-09-30T08:04:45.945Z,67.66
2022-09-30T08:07:15.962Z,67.82
2022-09-30T08:09:44.400Z,67.04
2022-09-30T08:12:12.676Z,66.48
2022-09-30T08:14:42.270Z,66.17
2022-09-30T08:17:10.290Z,66.07
2022-09-30T08:19:41.314Z,66.09
2022-09-30T08:22:10.544Z,65.73
2022-09-30T08:24:38.528Z,65.42
2022-09-30T08:27:06.556Z,65.35
2022-09-30T08:32:23.891Z,64.97
2022-09-30T08:34:52.021Z,64.48
2022-09-30T08:37:20.018Z,64.19
2022-09-30T08:39:48.434Z,63.45
2022-09-30T08:42:57.732Z,63.54
2022-09-30T08:45:41.169Z,63.33
2022-09-30T08:48:34.904Z,63.59
2022-09-30T08:51:24.455Z,62.07
2022-09-30T08:53:53.916Z,61.88
2022-09-30T08:56:26.703Z,62.79
2022-09-30T08:59:02.449Z,62.65
2022-09-30T09:01:35.021Z,61.93
2022-09-30T09:04:08.734Z,61.80
2022-09-30T09:06:52.698Z,61.55
2022-09-30T09:09:52.130Z,61.34
2022-09-30T09:12:38.377Z,60.78
2022-09-30T09:15:40.326Z,60.25
2022-09-30T09:18:53.379Z,59.66
2022-09-30T09:21:41.183Z,60.31
2022-09-30T09:24:19.503Z,59.80
2022-09-30T09:26:48.974Z,59.51
2022-09-30T09:29:43.954Z,59.07
2022-09-30T09:32:17.429Z,59.41
2022-09-30T09:34:47.086Z,59.07
2022-09-30T09:37:46.863Z,58.73
2022-09-30T09:40:27.948Z,59.20
2022-09-30T09:43:12.189Z,59.49
2022-09-30T09:45:53.147Z,59.20
2022-09-30T09:48:21.184Z,58.23
2022-09-30T09:51:03.892Z,56.42
2022-09-30T09:53:50.922Z,56.44
2022-09-30T09:56:21.553Z,57.28
2022-09-30T09:59:15.319Z,55.92
2022-09-30T10:01:50.186Z,56.57
2022-09-30T10:04:23.593Z,56.05
2022-09-30T10:06:55.182Z,56.20
2022-09-30T10:09:29.457Z,54.80
2022-09-30T10:12:29.687Z,55.05
2022-09-30T10:15:05.598Z,55.02
2022-09-30T10:17:36.600Z,54.31
2022-09-30T10:20:09.681Z,53.52
2022-09-30T10:22:38.375Z,53.57
2022-09-30T10:25:24.382Z,52.92
2022-09-30T10:27:57.657Z,52.90
2022-09-30T10:30:50.517Z,52.27
2022-09-30T10:33:27.856Z,51.68
2022-09-30T10:36:10.674Z,52.18
2022-09-30T10:38:54.165Z,52.74
2022-09-30T10:41:30.508Z,51.92
2022-09-30T10:44:02.135Z,51.85
2022-09-30T10:46:35.303Z,52.14
2022-09-30T10:49:12.619Z,51.73
2022-09-30T10:51:41.606Z,51.65
2022-09-30T10:54:47.680Z,51.17
2022-09-30T10:57:22.582Z,50.26
2022-09-30T10:59:55.729Z,49.86
2022-09-30T11:02:33.969Z,50.64
2022-09-30T11:05:18.001Z,50.24
2022-09-30T11:07:54.777Z,50.01
2022-09-30T11:10:39.946Z,50.26
2022-09-30T11:13:21.435Z,49.43
2022-09-30T11:16:03.503Z,49.57
2022-09-30T11:18:42.567Z,49.85
2022-09-30T11:21:21.262Z,50.98
2022-09-30T11:23:54.647Z,50.47
2022-09-30T11:26:42.664Z,50.40
2022-09-30T11:29:41.937Z,49.36
2022-09-30T11:32:26.949Z,50.14
2022-09-30T11:35:10.290Z,50.57
2022-09-30T11:38:02.865Z,50.34
2022-09-30T11:40:38.451Z,50.13
2022-09-30T11:43:34.003Z,49.25
2022-09-30T11:46:30.162Z,49.73
2022-09-30T11:49:25.493Z,48.82
2022-09-30T11:52:12.710Z,48.55
2022-09-30T11:55:14.376Z,48.20
2022-09-30T11:57:54.478Z,47.69
2022-09-30T12:00:23.289Z,47.29
2022-09-30T12:02:59.112Z,46.39
2022-09-30T12:05:33.028Z,46.60
2022-09-30T12:08:13.625Z,46.25
2022-09-30T12:10:49.223Z,46.21
2022-09-30T12:13:23.845Z,45.97
2022-09-30T12:15:55.738Z,46.76
2022-09-30T12:18:34.038Z,45.24
2022-09-30T12:21:10.044Z,46.43
2022-09-30T12:23:47.535Z,46.40
2022-09-30T12:26:17.158Z,46.93
2022-09-30T12:29:11.706Z,47.15
2022-09-30T12:32:19.238Z,48.01
2022-09-30T12:35:09.729Z,46.33
2022-09-30T12:38:08.339Z,46.55
2022-09-30T12:40:57.049Z,46.36
2022-09-30T12:44:11.217Z,46.76
2022-09-30T12:47:15.262Z,46.69
2022-09-30T12:49:45.397Z,46.38
2022-09-30T12:52:20.198Z,46.31
2022-09-30T12:54:54.639Z,47.05
2022-09-30T12:57:31.906Z,48.13
2022-09-30T13:00:14.930Z,48.86
2022-09-30T13:02:48.039Z,49.32
2022-09-30T13:05:56.208Z,48.94
2022-09-30T13:08:45.865Z,48.48
2022-09-30T13:11:44.146Z,47.75
2022-09-30T13:14:33.591Z,45.97
2022-09-30T13:17:29.023Z,45.79
2022-09-30T13:19:58.029Z,45.82
2022-09-30T13:23:00.249Z,46.41
2022-09-30T13:25:54.708Z,46.83
2022-09-30T13:28:37.964Z,47.96
2022-09-30T13:31:19.140Z,48.47
2022-09-30T13:34:04.217Z,49.04
2022-09-30T13:36:40.306Z,49.36
2022-09-30T13:39:26.526Z,48.62
2022-09-30T13:42:13.481Z,48.55
2022-09-30T13:45:02.944Z,48.46
2022-09-30T13:47:40.067Z,47.81
2022-09-30T13:50:17.207Z,47.29
2022-09-30T13:52:53.687Z,48.32
2022-09-30T13:55:28.032Z,49.03
2022-09-30T13:58:16.758Z,48.79
2022-09-30T14:00:59.416Z,48.36
2022-09-30T14:03:53.091Z,48.32
2022-09-30T14:06:39.063Z,48.36
2022-09-30T14:09:53.218Z,49.22
2022-09-30T14:12:38.076Z,49.00
2022-09-30T14:15:47.126Z,49.05
2022-09-30T14:18:53.341Z,48.93
2022-09-30T14:21:35.873Z,48.88
2022-09-30T14:24:12.876Z,49.21
2022-09-30T14:27:05.681Z,48.84
2022-09-30T14:29:48.276Z,49.64
2022-09-30T14:32:22.565Z,49.50
2022-09-30T14:34:52.074Z,49.98
2022-09-30T14:37:27.272Z,49.83
2022-09-30T14:39:56.193Z,49.70
2022-09-30T14:42:32.667Z,48.15
2022-09-30T14:45:05.890Z,48.53
2022-09-30T14:47:40.482Z,49.20
2022-09-30T14:50:16.221Z,49.77
2022-09-30T14:52:47.338Z,50.10
2022-09-30T14:55:26.894Z,49.98
2022-09-30T14:57:59.951Z,50.07
2022-09-30T15:00:33.097Z,50.16
2022-09-30T15:03:02.502Z,50.55
2022-09-30T15:05:30.556Z,50.47
2022-09-30T15:07:58.587Z,50.60
2022-09-30T15:10:26.764Z,50.58
2022-09-30T15:12:55.998Z,50.21
2022-09-30T15:15:36.810Z,50.60
2022-09-30T15:18:32.684Z,50.76
2022-09-30T15:21:09.891Z,50.89
2022-09-30T15:23:42.419Z,51.23
2022-09-30T15:26:14.559Z,51.59
2022-09-30T15:28:43.252Z,51.73
2022-09-30T15:31:24.631Z,51.75
2022-09-30T15:34:14.086Z,51.97
2022-09-30T15:36:43.344Z,50.97
2022-09-30T15:39:23.439Z,51.05
2022-09-30T15:41:53.132Z,51.45
2022-09-30T15:44:39.218Z,51.71
2022-09-30T15:47:09.924Z,52.29
2022-09-30T15:49:49.877Z,52.13
2022-09-30T15:52:36.367Z,51.85
2022-09-30T15:55:42.273Z,51.89
2022-09-30T15:58:38.247Z,52.34
2022-09-30T16:01:22.020Z,52.83
2022-09-30T16:03:55.662Z,53.28
2022-09-30T16:06:32.522Z,53.69
2022-09-30T16:09:06.503Z,53.90
2022-09-30T16:11:41.903Z,54.34
2022-09-30T16:14:22.210Z,54.88
2022-09-30T16:16:56.811Z,55.44
2022-09-30T16:19:26.263Z,55.75
2022-09-30T16:21:55.958Z,55.91
2022-09-30T16:24:44.287Z,56.37
2022-09-30T16:27:32.646Z,57.15
2022-09-30T16:30:01.785Z,57.37
2022-09-30T16:32:36.901Z,57.67
2022-09-30T16:35:07.220Z,57.87
2022-09-30T16:37:36.110Z,58.26
2022-09-30T16:40:19.618Z,58.89
2022-09-30T16:42:48.936Z,59.20
2022-09-30T16:45:17.222Z,59.64
2022-09-30T16:47:46.082Z,60.18
2022-09-30T16:50:25.626Z,60.53
2022-09-30T16:52:53.632Z,60.84
2022-09-30T16:55:21.799Z,61.03
2022-09-30T16:57:51.260Z,61.03
2022-09-30T17:00:19.997Z,61.85
2022-09-30T17:02:49.638Z,62.07
2022-09-30T17:05:20.098Z,62.19
2022-09-30T17:07:52.457Z,62.87
2022-09-30T17:10:24.841Z,62.97
2022-09-30T17:12:54.208Z,63.42
2022-09-30T17:15:23.134Z,64.09
2022-09-30T17:17:52.714Z,64.65
2022-09-30T17:20:20.912Z,64.64
2022-09-30T17:22:50.130Z,65.02
2022-09-30T17:25:19.641Z,65.65
2022-09-30T17:27:50.073Z,65.77
2022-09-30T17:30:21.302Z,65.65
2022-09-30T17:32:49.627Z,65.35
2022-09-30T17:35:17.872Z,65.68
2022-09-30T17:37:47.619Z,65.99
2022-09-30T17:40:41.765Z,66.60
2022-09-30T17:43:10.974Z,67.26
2022-09-30T17:45:43.897Z,67.20
2022-09-30T17:48:13.869Z,67.40
2022-09-30T17:50:47.166Z,67.88
2022-09-30T17:53:18.097Z,68.40
2022-09-30T17:55:48.159Z,68.71
2022-09-30T17:58:17.956Z,69.06
2022-09-30T18:00:47.750Z,69.22
2022-09-30T18:03:16.176Z,69.65
2022-09-30T18:05:45.484Z,70.13
2022-09-30T18:08:14.015Z,70.35
2022-09-30T18:10:42.018Z,70.75
2022-09-30T18:13:11.502Z,71.09
2022-09-30T18:15:39.914Z,71.57
2022-09-30T18:18:09.284Z,71.64
2022-09-30T18:20:37.338Z,71.67
2022-09-30T18:23:05.338Z,72.06
2022-09-30T18:25:34.581Z,72.43
2022-09-30T18:28:03.421Z,72.55
2022-09-30T18:30:31.447Z,72.67
2022-09-30T18:32:59.489Z,72.90
2022-09-30T18:35:30.233Z,73.12
2022-09-30T18:37:58.224Z,73.41
2022-09-30T18:40:29.531Z,73.30
2022-09-30T18:43:02.242Z,73.41
2022-09-30T18:45:35.683Z,73.69
2022-09-30T18:48:04.367Z,73.80
2022-09-30T18:50:35.084Z,73.95
2022-09-30T18:53:09.062Z,74.24
2022-09-30T18:55:39.015Z,74.52
2022-09-30T18:58:07.441Z,74.75
2022-09-30T19:00:35.777Z,74.89
2022-09-30T19:03:03.798Z,75.19
2022-09-30T19:05:33.168Z,75.43
2022-09-30T19:08:01.300Z,75.70
2022-09-30T19:10:29.676Z,75.90
2022-09-30T19:12:57.680Z,76.46
2022-09-30T19:15:25.658Z,76.59
2022-09-30T19:17:53.716Z,76.74
2022-09-30T19:20:22.639Z,76.98
2022-09-30T19:22:52.183Z,77.39
2022-09-30T19:25:20.705Z,77.65
2022-09-30T19:27:49.451Z,77.94
2022-09-30T19:30:17.733Z,77.99
2022-09-30T19:32:45.755Z,78.12
2022-09-30T19:35:17.076Z,78.32
2022-09-30T19:37:58.680Z,78.43
2022-09-30T19:43:05.288Z,79.12
2022-09-30T19:45:33.637Z,79.58
2022-09-30T19:48:03.064Z,79.84
2022-09-30T19:50:31.065Z,80.35
2022-09-30T19:53:00.540Z,80.57
2022-09-30T19:55:31.867Z,80.35
2022-09-30T19:58:04.219Z,80.45
2022-09-30T20:00:32.212Z,80.71
2022-09-30T20:03:00.206Z,80.69
2022-09-30T20:05:28.950Z,80.79
2022-09-30T20:07:56.890Z,81.10
2022-09-30T20:10:24.972Z,81.11
2022-09-30T20:12:54.312Z,81.44
2022-09-30T20:15:43.805Z,81.61
2022-09-30T20:18:14.005Z,81.96
2022-09-30T20:20:45.358Z,82.28
2022-09-30T20:23:14.433Z,82.35
2022-09-30T20:25:43.047Z,82.43
2022-09-30T20:28:12.463Z,82.90
2022-09-30T20:30:45.349Z,83.00
2022-09-30T20:33:16.385Z,83.20
2022-09-30T20:35:44.612Z,83.59
2022-09-30T20:38:15.442Z,83.66
2022-09-30T20:40:43.583Z,83.71
2022-09-30T20:43:13.262Z,83.82
2022-09-30T20:45:41.389Z,84.25
2022-09-30T20:48:09.594Z,84.59
2022-09-30T20:50:43.412Z,84.81
2022-09-30T20:53:14.002Z,84.92
2022-09-30T20:55:44.492Z,85.21
2022-09-30T20:58:14.622Z,85.45
2022-09-30T21:00:44.455Z,85.53
2022-09-30T21:03:15.050Z,85.46
2022-09-30T21:05:52.451Z,85.43
2022-09-30T21:08:20.680Z,85.86
2022-09-30T21:10:48.690Z,86.21
2022-09-30T21:13:18.505Z,86.39
2022-09-30T21:15:46.572Z,86.76
2022-09-30T21:18:14.586Z,87.05
2022-09-30T21:20:42.619Z,87.43
2022-09-30T21:23:10.601Z,87.53
2022-09-30T21:25:38.584Z,87.46
2022-09-30T21:28:06.690Z,87.51
2022-09-30T21:30:42.221Z,87.52
2022-09-30T21:33:10.290Z,87.75
2022-09-30T21:35:38.294Z,87.75
2022-09-30T21:38:06.304Z,88.03
2022-09-30T21:40:34.248Z,88.30
2022-09-30T21:43:02.309Z,88.21
2022-09-30T21:45:30.328Z,88.26
2022-09-30T21:48:06.105Z,88.27
2022-09-30T21:50:36.222Z,88.11
2022-09-30T21:53:04.620Z,88.00
2022-09-30T21:55:33.401Z,88.42
2022-09-30T21:58:01.375Z,88.50
2022-09-30T22:00:29.420Z,88.68
2022-09-30T22:02:58.862Z,88.72
2022-09-30T22:05:28.164Z,88.86
2022-09-30T22:07:59.452Z,88.84
2022-09-30T22:10:27.559Z,88.97
2022-09-30T22:12:55.515Z,89.07
2022-09-30T22:15:23.549Z,89.04
2022-09-30T22:17:51.984Z,88.55
2022-09-30T22:20:20.897Z,87.87
2022-09-30T22:22:50.278Z,87.42
2022-09-30T22:25:20.411Z,86.85
2022-09-30T22:27:48.420Z,86.22
2022-09-30T22:30:16.547Z,86.02
2022-09-30T22:32:44.587Z,85.71
2022-09-30T22:35:31.248Z,85.54
2022-09-30T22:38:15.979Z,85.63
2022-09-30T22:40:44.109Z,86.16
2022-09-30T22:43:12.109Z,86.37
2022-09-30T22:45:40.355Z,86.59
2022-09-30T22:48:08.403Z,86.75
2022-09-30T22:50:36.892Z,86.69
2022-09-30T22:53:06.228Z,86.78
2022-09-30T22:55:36.136Z,86.82
2022-09-30T22:58:04.198Z,86.74
2022-09-30T23:00:32.391Z,86.65
2022-09-30T23:03:00.370Z,86.87
2022-09-30T23:05:28.349Z,87.02
2022-09-30T23:07:56.636Z,87.43
2022-09-30T23:10:25.938Z,87.48
2022-09-30T23:12:53.973Z,87.47
2022-09-30T23:15:22.419Z,87.47
2022-09-30T23:17:50.389Z,87.28
2022-09-30T23:20:18.737Z,87.34
2022-09-30T23:22:47.016Z,86.55
2022-09-30T23:25:15.134Z,86.53
2022-09-30T23:27:48.866Z,86.38
2022-09-30T23:30:17.398Z,86.09
2022-09-30T23:32:45.435Z,86.14
2022-09-30T23:35:14.028Z,85.86
2022-09-30T23:37:42.018Z,85.52
2022-09-30T23:40:11.004Z,85.58
2022-09-30T23:42:38.995Z,85.40
2022-09-30T23:45:10.072Z,85.32
2022-09-30T23:47:38.156Z,84.95
2022-09-30T23:50:07.410Z,84.78
2022-09-30T23:52:35.613Z,84.65
2022-09-30T23:55:03.632Z,84.89
2022-09-30T23:57:31.921Z,84.58
2022-09-30T23:59:59.884Z,83.71
